Akwesasne, New York
Current Conditions -  °F | °C
As of 6:53 AM on Sunday 21 Dec 2014 (Local Time) from KMSS Reporting Station
Overcast Overcast  
Wind Chill:   Ceiling: 2000
Heat Index: 14°   Visibility: 7mi
Dew Point: 11°   Wind: 6mph
Humidity: 88%   Direction: 80°E
Pressure: 30.36"   Gusts: NA
Location:  44.9835°N, 74.6107°W
Report Text: KMSS 211153Z AUTO 08005KT 7SM SCT006 OVC020 M10/M12 A3036 RMK AO2 SLP290 I6000 T11001117 11100 21106 53003
Loading
Personal Weather Stations






























Interactive Weather Map New forecast layout! Learn more

10-Day Weather Forecast

Advertisements
Track Severe Weather on mobile